sensor_id;sensor_type;location;lat;lon;timestamp;P1;durP1;ratioP1;P2;durP2;ratioP2
9860;SDS011;4969;52.304;4.968;2023-07-13T00:01:53;12.13;;;3.30;;
9860;SDS011;4969;52.304;4.968;2023-07-13T00:04:21;11.23;;;3.55;;
9860;SDS011;4969;52.304;4.968;2023-07-13T00:06:50;10.48;;;3.42;;
9860;SDS011;4969;52.304;4.968;2023-07-13T00:09:17;12.80;;;3.50;;
9860;SDS011;4969;52.304;4.968;2023-07-13T00:11:45;7.45;;;2.88;;
9860;SDS011;4969;52.304;4.968;2023-07-13T00:14:17;7.68;;;2.97;;
9860;SDS011;4969;52.304;4.968;2023-07-13T00:16:45;13.70;;;3.20;;
9860;SDS011;4969;52.304;4.968;2023-07-13T00:19:12;9.25;;;3.50;;
9860;SDS011;4969;52.304;4.968;2023-07-13T00:21:40;12.32;;;3.90;;
9860;SDS011;4969;52.304;4.968;2023-07-13T00:24:07;11.45;;;3.45;;
9860;SDS011;4969;52.304;4.968;2023-07-13T00:26:39;11.45;;;3.63;;
9860;SDS011;4969;52.304;4.968;2023-07-13T00:29:10;9.00;;;3.85;;
9860;SDS011;4969;52.304;4.968;2023-07-13T00:31:37;12.52;;;3.55;;
9860;SDS011;4969;52.304;4.968;2023-07-13T00:34:06;9.32;;;3.70;;
9860;SDS011;4969;52.304;4.968;2023-07-13T00:36:33;13.20;;;4.18;;
9860;SDS011;4969;52.304;4.968;2023-07-13T00:39:00;13.30;;;3.70;;
9860;SDS011;4969;52.304;4.968;2023-07-13T00:41:29;9.82;;;4.00;;
9860;SDS011;4969;52.304;4.968;2023-07-13T00:43:56;11.18;;;3.70;;
9860;SDS011;4969;52.304;4.968;2023-07-13T00:46:24;10.82;;;3.25;;
9860;SDS011;4969;52.304;4.968;2023-07-13T00:48:53;10.13;;;3.53;;
9860;SDS011;4969;52.304;4.968;2023-07-13T00:51:25;13.68;;;4.25;;
9860;SDS011;4969;52.304;4.968;2023-07-13T00:54:03;9.98;;;3.65;;
9860;SDS011;4969;52.304;4.968;2023-07-13T00:56:31;12.68;;;3.85;;
9860;SDS011;4969;52.304;4.968;2023-07-13T00:58:59;10.98;;;3.45;;
9860;SDS011;4969;52.304;4.968;2023-07-13T01:01:28;12.55;;;4.53;;
9860;SDS011;4969;52.304;4.968;2023-07-13T01:03:55;13.95;;;3.97;;
9860;SDS011;4969;52.304;4.968;2023-07-13T01:06:22;12.10;;;4.00;;
9860;SDS011;4969;52.304;4.968;2023-07-13T01:08:51;12.98;;;4.35;;
9860;SDS011;4969;52.304;4.968;2023-07-13T01:11:19;17.15;;;4.65;;
9860;SDS011;4969;52.304;4.968;2023-07-13T01:13:47;10.80;;;3.90;;
9860;SDS011;4969;52.304;4.968;2023-07-13T01:16:15;14.40;;;3.95;;
9860;SDS011;4969;52.304;4.968;2023-07-13T01:18:46;11.25;;;3.67;;
9860;SDS011;4969;52.304;4.968;2023-07-13T01:21:14;13.10;;;4.07;;
9860;SDS011;4969;52.304;4.968;2023-07-13T01:23:41;11.32;;;3.78;;
9860;SDS011;4969;52.304;4.968;2023-07-13T01:26:09;13.77;;;3.97;;
9860;SDS011;4969;52.304;4.968;2023-07-13T01:28:36;8.52;;;3.30;;
9860;SDS011;4969;52.304;4.968;2023-07-13T01:31:03;10.77;;;3.28;;
9860;SDS011;4969;52.304;4.968;2023-07-13T01:33:31;9.80;;;3.30;;
9860;SDS011;4969;52.304;4.968;2023-07-13T01:35:58;10.82;;;3.45;;
9860;SDS011;4969;52.304;4.968;2023-07-13T01:38:26;9.68;;;3.03;;
9860;SDS011;4969;52.304;4.968;2023-07-13T01:40:53;9.70;;;3.20;;
9860;SDS011;4969;52.304;4.968;2023-07-13T01:43:20;5.93;;;2.50;;
9860;SDS011;4969;52.304;4.968;2023-07-13T01:45:47;9.23;;;2.45;;
9860;SDS011;4969;52.304;4.968;2023-07-13T01:48:14;7.43;;;2.20;;
9860;SDS011;4969;52.304;4.968;2023-07-13T01:50:41;7.93;;;2.78;;
9860;SDS011;4969;52.304;4.968;2023-07-13T01:53:08;5.28;;;2.28;;
9860;SDS011;4969;52.304;4.968;2023-07-13T01:55:37;5.68;;;2.28;;
9860;SDS011;4969;52.304;4.968;2023-07-13T01:58:04;6.22;;;2.15;;
9860;SDS011;4969;52.304;4.968;2023-07-13T02:00:32;6.22;;;2.67;;
9860;SDS011;4969;52.304;4.968;2023-07-13T02:02:59;8.55;;;2.30;;
9860;SDS011;4969;52.304;4.968;2023-07-13T02:05:25;5.78;;;2.35;;
9860;SDS011;4969;52.304;4.968;2023-07-13T02:07:52;5.35;;;2.40;;
9860;SDS011;4969;52.304;4.968;2023-07-13T02:10:19;5.50;;;2.28;;
9860;SDS011;4969;52.304;4.968;2023-07-13T02:12:48;5.30;;;2.00;;
9860;SDS011;4969;52.304;4.968;2023-07-13T02:15:16;5.50;;;2.30;;
9860;SDS011;4969;52.304;4.968;2023-07-13T02:17:43;5.70;;;1.70;;
9860;SDS011;4969;52.304;4.968;2023-07-13T02:20:10;5.80;;;2.28;;
9860;SDS011;4969;52.304;4.968;2023-07-13T02:22:37;4.63;;;2.00;;
9860;SDS011;4969;52.304;4.968;2023-07-13T02:25:04;6.32;;;2.13;;
9860;SDS011;4969;52.304;4.968;2023-07-13T02:27:31;3.70;;;2.25;;
9860;SDS011;4969;52.304;4.968;2023-07-13T02:30:00;7.03;;;2.20;;
9860;SDS011;4969;52.304;4.968;2023-07-13T02:32:28;4.72;;;1.80;;
9860;SDS011;4969;52.304;4.968;2023-07-13T02:34:55;7.68;;;1.60;;
9860;SDS011;4969;52.304;4.968;2023-07-13T02:37:22;5.28;;;1.75;;
9860;SDS011;4969;52.304;4.968;2023-07-13T02:39:49;3.80;;;1.92;;
9860;SDS011;4969;52.304;4.968;2023-07-13T02:42:15;6.90;;;2.10;;
9860;SDS011;4969;52.304;4.968;2023-07-13T02:44:44;2.03;;;1.42;;
9860;SDS011;4969;52.304;4.968;2023-07-13T02:47:12;3.45;;;1.95;;
9860;SDS011;4969;52.304;4.968;2023-07-13T02:49:39;4.40;;;1.75;;
9860;SDS011;4969;52.304;4.968;2023-07-13T02:52:06;4.60;;;1.75;;
9860;SDS011;4969;52.304;4.968;2023-07-13T02:54:33;5.43;;;1.70;;
9860;SDS011;4969;52.304;4.968;2023-07-13T02:56:59;1.67;;;1.30;;
9860;SDS011;4969;52.304;4.968;2023-07-13T02:59:26;3.67;;;1.60;;
9860;SDS011;4969;52.304;4.968;2023-07-13T03:01:55;5.85;;;2.30;;
9860;SDS011;4969;52.304;4.968;2023-07-13T03:04:23;3.83;;;1.48;;
9860;SDS011;4969;52.304;4.968;2023-07-13T03:06:53;3.65;;;1.75;;
9860;SDS011;4969;52.304;4.968;2023-07-13T03:09:22;7.10;;;2.70;;
9860;SDS011;4969;52.304;4.968;2023-07-13T03:11:51;2.88;;;1.70;;
9860;SDS011;4969;52.304;4.968;2023-07-13T03:14:19;3.50;;;1.90;;
9860;SDS011;4969;52.304;4.968;2023-07-13T03:16:46;5.18;;;2.10;;
9860;SDS011;4969;52.304;4.968;2023-07-13T03:19:13;4.45;;;1.98;;
9860;SDS011;4969;52.304;4.968;2023-07-13T03:21:41;5.47;;;1.83;;
9860;SDS011;4969;52.304;4.968;2023-07-13T03:24:08;2.42;;;1.83;;
9860;SDS011;4969;52.304;4.968;2023-07-13T03:26:35;6.97;;;2.22;;
9860;SDS011;4969;52.304;4.968;2023-07-13T03:29:02;5.85;;;2.00;;
9860;SDS011;4969;52.304;4.968;2023-07-13T03:31:29;2.80;;;1.67;;
9860;SDS011;4969;52.304;4.968;2023-07-13T03:34:01;6.32;;;1.90;;
9860;SDS011;4969;52.304;4.968;2023-07-13T03:36:29;5.05;;;2.22;;
9860;SDS011;4969;52.304;4.968;2023-07-13T03:38:59;5.30;;;2.10;;
9860;SDS011;4969;52.304;4.968;2023-07-13T03:41:28;5.45;;;2.35;;
9860;SDS011;4969;52.304;4.968;2023-07-13T03:43:55;4.22;;;2.35;;
9860;SDS011;4969;52.304;4.968;2023-07-13T03:46:22;4.25;;;2.10;;
9860;SDS011;4969;52.304;4.968;2023-07-13T03:48:49;6.00;;;2.40;;
9860;SDS011;4969;52.304;4.968;2023-07-13T03:51:16;7.53;;;2.72;;
9860;SDS011;4969;52.304;4.968;2023-07-13T03:53:44;6.25;;;2.22;;
9860;SDS011;4969;52.304;4.968;2023-07-13T03:56:13;4.45;;;2.47;;
9860;SDS011;4969;52.304;4.968;2023-07-13T03:58:41;6.30;;;2.28;;
9860;SDS011;4969;52.304;4.968;2023-07-13T04:01:09;5.57;;;2.40;;
9860;SDS011;4969;52.304;4.968;2023-07-13T04:03:37;6.93;;;2.40;;
9860;SDS011;4969;52.304;4.968;2023-07-13T04:06:05;5.43;;;2.30;;
9860;SDS011;4969;52.304;4.968;2023-07-13T04:08:35;4.57;;;2.17;;
9860;SDS011;4969;52.304;4.968;2023-07-13T04:11:03;4.80;;;2.65;;
9860;SDS011;4969;52.304;4.968;2023-07-13T04:13:32;4.43;;;1.92;;
9860;SDS011;4969;52.304;4.968;2023-07-13T04:15:59;7.05;;;2.30;;
9860;SDS011;4969;52.304;4.968;2023-07-13T04:18:26;3.90;;;2.13;;
9860;SDS011;4969;52.304;4.968;2023-07-13T04:20:53;4.75;;;2.20;;
9860;SDS011;4969;52.304;4.968;2023-07-13T04:23:20;5.00;;;2.38;;
9860;SDS011;4969;52.304;4.968;2023-07-13T04:25:47;4.95;;;2.38;;
9860;SDS011;4969;52.304;4.968;2023-07-13T04:28:17;3.97;;;2.10;;
9860;SDS011;4969;52.304;4.968;2023-07-13T04:30:46;5.57;;;2.15;;
9860;SDS011;4969;52.304;4.968;2023-07-13T04:33:13;5.57;;;1.90;;
9860;SDS011;4969;52.304;4.968;2023-07-13T04:35:39;5.70;;;1.92;;
9860;SDS011;4969;52.304;4.968;2023-07-13T04:38:06;8.02;;;2.30;;
9860;SDS011;4969;52.304;4.968;2023-07-13T04:40:35;5.75;;;2.13;;
9860;SDS011;4969;52.304;4.968;2023-07-13T04:43:02;7.00;;;2.30;;
9860;SDS011;4969;52.304;4.968;2023-07-13T04:45:29;5.90;;;2.28;;
9860;SDS011;4969;52.304;4.968;2023-07-13T04:48:00;5.55;;;2.17;;
9860;SDS011;4969;52.304;4.968;2023-07-13T04:50:30;4.32;;;2.35;;
9860;SDS011;4969;52.304;4.968;2023-07-13T04:52:57;6.60;;;2.75;;
9860;SDS011;4969;52.304;4.968;2023-07-13T04:55:24;8.90;;;2.45;;
9860;SDS011;4969;52.304;4.968;2023-07-13T04:57:58;7.80;;;2.53;;
9860;SDS011;4969;52.304;4.968;2023-07-13T05:00:25;7.57;;;2.67;;
9860;SDS011;4969;52.304;4.968;2023-07-13T05:02:58;4.78;;;2.33;;
9860;SDS011;4969;52.304;4.968;2023-07-13T05:05:33;6.82;;;2.75;;
9860;SDS011;4969;52.304;4.968;2023-07-13T05:08:00;7.25;;;2.90;;
9860;SDS011;4969;52.304;4.968;2023-07-13T05:10:27;5.55;;;2.60;;
9860;SDS011;4969;52.304;4.968;2023-07-13T05:12:56;6.30;;;2.70;;
9860;SDS011;4969;52.304;4.968;2023-07-13T05:15:28;9.80;;;3.20;;
9860;SDS011;4969;52.304;4.968;2023-07-13T05:18:02;6.57;;;2.60;;
9860;SDS011;4969;52.304;4.968;2023-07-13T05:20:29;6.95;;;2.60;;
9860;SDS011;4969;52.304;4.968;2023-07-13T05:22:56;7.82;;;3.15;;
9860;SDS011;4969;52.304;4.968;2023-07-13T05:25:23;9.98;;;3.10;;
9860;SDS011;4969;52.304;4.968;2023-07-13T05:27:50;5.70;;;2.80;;
9860;SDS011;4969;52.304;4.968;2023-07-13T05:30:18;11.95;;;3.17;;
9860;SDS011;4969;52.304;4.968;2023-07-13T05:32:45;13.32;;;3.80;;
9860;SDS011;4969;52.304;4.968;2023-07-13T05:35:13;7.45;;;3.35;;
9860;SDS011;4969;52.304;4.968;2023-07-13T05:37:44;7.70;;;3.30;;
9860;SDS011;4969;52.304;4.968;2023-07-13T05:40:14;7.55;;;2.97;;
9860;SDS011;4969;52.304;4.968;2023-07-13T05:45:36;7.70;;;2.90;;
9860;SDS011;4969;52.304;4.968;2023-07-13T05:48:09;6.70;;;3.15;;
9860;SDS011;4969;52.304;4.968;2023-07-13T05:50:37;8.90;;;3.00;;
9860;SDS011;4969;52.304;4.968;2023-07-13T05:53:07;7.35;;;3.40;;
9860;SDS011;4969;52.304;4.968;2023-07-13T05:55:33;10.45;;;3.65;;
9860;SDS011;4969;52.304;4.968;2023-07-13T05:58:00;10.95;;;3.50;;
9860;SDS011;4969;52.304;4.968;2023-07-13T06:00:28;11.70;;;3.33;;
9860;SDS011;4969;52.304;4.968;2023-07-13T06:02:58;7.45;;;3.50;;
9860;SDS011;4969;52.304;4.968;2023-07-13T06:05:29;8.88;;;3.50;;
9860;SDS011;4969;52.304;4.968;2023-07-13T06:08:00;8.95;;;3.60;;
9860;SDS011;4969;52.304;4.968;2023-07-13T06:10:26;10.60;;;3.50;;
9860;SDS011;4969;52.304;4.968;2023-07-13T06:12:57;11.02;;;3.30;;
9860;SDS011;4969;52.304;4.968;2023-07-13T06:15:24;8.20;;;3.35;;
9860;SDS011;4969;52.304;4.968;2023-07-13T06:17:51;9.48;;;3.22;;
9860;SDS011;4969;52.304;4.968;2023-07-13T06:20:25;8.32;;;2.83;;
9860;SDS011;4969;52.304;4.968;2023-07-13T06:22:54;7.95;;;3.05;;
9860;SDS011;4969;52.304;4.968;2023-07-13T06:25:24;8.52;;;3.00;;
9860;SDS011;4969;52.304;4.968;2023-07-13T06:27:52;5.78;;;2.80;;
9860;SDS011;4969;52.304;4.968;2023-07-13T06:30:24;7.57;;;2.85;;
9860;SDS011;4969;52.304;4.968;2023-07-13T06:32:50;9.80;;;3.40;;
9860;SDS011;4969;52.304;4.968;2023-07-13T06:35:20;6.32;;;2.78;;
9860;SDS011;4969;52.304;4.968;2023-07-13T06:37:50;7.35;;;3.22;;
9860;SDS011;4969;52.304;4.968;2023-07-13T06:40:17;6.10;;;2.78;;
9860;SDS011;4969;52.304;4.968;2023-07-13T06:42:46;6.10;;;2.60;;
9860;SDS011;4969;52.304;4.968;2023-07-13T06:45:13;5.63;;;2.30;;
9860;SDS011;4969;52.304;4.968;2023-07-13T06:47:39;5.50;;;2.50;;
9860;SDS011;4969;52.304;4.968;2023-07-13T06:50:08;5.18;;;2.45;;
9860;SDS011;4969;52.304;4.968;2023-07-13T06:52:36;6.75;;;2.50;;
9860;SDS011;4969;52.304;4.968;2023-07-13T06:55:05;7.20;;;2.80;;
9860;SDS011;4969;52.304;4.968;2023-07-13T06:57:37;8.38;;;3.08;;
9860;SDS011;4969;52.304;4.968;2023-07-13T07:00:05;8.10;;;2.88;;
9860;SDS011;4969;52.304;4.968;2023-07-13T07:02:35;7.38;;;2.53;;
9860;SDS011;4969;52.304;4.968;2023-07-13T07:05:02;5.45;;;2.75;;
9860;SDS011;4969;52.304;4.968;2023-07-13T07:07:29;6.65;;;2.95;;
9860;SDS011;4969;52.304;4.968;2023-07-13T07:09:56;5.22;;;2.85;;
9860;SDS011;4969;52.304;4.968;2023-07-13T07:12:23;4.50;;;2.55;;
9860;SDS011;4969;52.304;4.968;2023-07-13T07:14:50;6.13;;;2.80;;
9860;SDS011;4969;52.304;4.968;2023-07-13T07:17:18;7.13;;;3.08;;
9860;SDS011;4969;52.304;4.968;2023-07-13T07:19:44;4.88;;;2.60;;
9860;SDS011;4969;52.304;4.968;2023-07-13T07:22:11;5.05;;;2.47;;
9860;SDS011;4969;52.304;4.968;2023-07-13T07:24:38;4.10;;;2.42;;
9860;SDS011;4969;52.304;4.968;2023-07-13T07:27:05;10.15;;;2.50;;
9860;SDS011;4969;52.304;4.968;2023-07-13T07:29:33;6.63;;;2.88;;
9860;SDS011;4969;52.304;4.968;2023-07-13T07:32:00;5.68;;;3.03;;
9860;SDS011;4969;52.304;4.968;2023-07-13T07:34:28;5.15;;;2.75;;
9860;SDS011;4969;52.304;4.968;2023-07-13T07:37:00;5.13;;;2.50;;
9860;SDS011;4969;52.304;4.968;2023-07-13T07:39:27;6.97;;;2.80;;
9860;SDS011;4969;52.304;4.968;2023-07-13T07:41:54;8.35;;;2.60;;
9860;SDS011;4969;52.304;4.968;2023-07-13T07:44:21;6.95;;;3.10;;
9860;SDS011;4969;52.304;4.968;2023-07-13T07:46:48;3.50;;;2.45;;
9860;SDS011;4969;52.304;4.968;2023-07-13T07:49:20;4.97;;;2.28;;
9860;SDS011;4969;52.304;4.968;2023-07-13T07:51:48;6.28;;;2.58;;
9860;SDS011;4969;52.304;4.968;2023-07-13T07:54:15;7.03;;;2.75;;
9860;SDS011;4969;52.304;4.968;2023-07-13T07:56:43;5.93;;;3.03;;
9860;SDS011;4969;52.304;4.968;2023-07-13T07:59:10;4.30;;;2.80;;
9860;SDS011;4969;52.304;4.968;2023-07-13T08:01:37;6.07;;;2.80;;
9860;SDS011;4969;52.304;4.968;2023-07-13T08:04:04;7.05;;;2.47;;
9860;SDS011;4969;52.304;4.968;2023-07-13T08:06:31;7.50;;;2.90;;
9860;SDS011;4969;52.304;4.968;2023-07-13T08:09:00;6.57;;;2.60;;
9860;SDS011;4969;52.304;4.968;2023-07-13T08:11:29;7.35;;;2.60;;
9860;SDS011;4969;52.304;4.968;2023-07-13T08:13:56;6.25;;;2.80;;
9860;SDS011;4969;52.304;4.968;2023-07-13T08:16:23;7.55;;;2.92;;
9860;SDS011;4969;52.304;4.968;2023-07-13T08:18:51;5.22;;;2.33;;
9860;SDS011;4969;52.304;4.968;2023-07-13T08:21:17;4.55;;;2.30;;
9860;SDS011;4969;52.304;4.968;2023-07-13T08:23:45;5.00;;;2.65;;
9860;SDS011;4969;52.304;4.968;2023-07-13T08:26:14;6.40;;;2.47;;
9860;SDS011;4969;52.304;4.968;2023-07-13T08:28:41;3.63;;;2.10;;
9860;SDS011;4969;52.304;4.968;2023-07-13T08:31:08;3.47;;;2.35;;
9860;SDS011;4969;52.304;4.968;2023-07-13T08:33:36;6.53;;;2.67;;
9860;SDS011;4969;52.304;4.968;2023-07-13T08:36:03;6.30;;;2.60;;
9860;SDS011;4969;52.304;4.968;2023-07-13T08:38:31;6.00;;;2.53;;
9860;SDS011;4969;52.304;4.968;2023-07-13T08:40:57;3.60;;;2.40;;
9860;SDS011;4969;52.304;4.968;2023-07-13T08:43:26;3.47;;;2.10;;
9860;SDS011;4969;52.304;4.968;2023-07-13T08:45:57;6.43;;;2.53;;
9860;SDS011;4969;52.304;4.968;2023-07-13T08:48:30;9.13;;;3.30;;
9860;SDS011;4969;52.304;4.968;2023-07-13T08:51:02;7.43;;;2.65;;
9860;SDS011;4969;52.304;4.968;2023-07-13T08:53:36;6.80;;;2.38;;
9860;SDS011;4969;52.304;4.968;2023-07-13T08:56:09;4.40;;;2.50;;
9860;SDS011;4969;52.304;4.968;2023-07-13T08:58:40;5.43;;;2.72;;
9860;SDS011;4969;52.304;4.968;2023-07-13T09:01:10;4.60;;;2.30;;
9860;SDS011;4969;52.304;4.968;2023-07-13T09:03:46;4.10;;;2.25;;
9860;SDS011;4969;52.304;4.968;2023-07-13T09:06:18;6.88;;;2.55;;
9860;SDS011;4969;52.304;4.968;2023-07-13T09:08:51;5.50;;;2.58;;
9860;SDS011;4969;52.304;4.968;2023-07-13T09:11:32;5.97;;;2.70;;
9860;SDS011;4969;52.304;4.968;2023-07-13T09:14:13;6.57;;;2.60;;
9860;SDS011;4969;52.304;4.968;2023-07-13T09:17:01;5.22;;;2.40;;
9860;SDS011;4969;52.304;4.968;2023-07-13T09:19:31;5.30;;;2.55;;
9860;SDS011;4969;52.304;4.968;2023-07-13T09:22:00;4.47;;;2.47;;
9860;SDS011;4969;52.304;4.968;2023-07-13T09:24:33;3.30;;;2.20;;
9860;SDS011;4969;52.304;4.968;2023-07-13T09:27:03;3.78;;;2.20;;
9860;SDS011;4969;52.304;4.968;2023-07-13T09:29:41;6.00;;;2.45;;
9860;SDS011;4969;52.304;4.968;2023-07-13T09:32:12;4.07;;;2.28;;
9860;SDS011;4969;52.304;4.968;2023-07-13T09:34:49;4.10;;;2.40;;
9860;SDS011;4969;52.304;4.968;2023-07-13T09:37:17;3.60;;;2.17;;
9860;SDS011;4969;52.304;4.968;2023-07-13T09:39:47;6.18;;;2.53;;
9860;SDS011;4969;52.304;4.968;2023-07-13T09:42:16;6.40;;;2.75;;
9860;SDS011;4969;52.304;4.968;2023-07-13T09:44:52;4.20;;;2.40;;
9860;SDS011;4969;52.304;4.968;2023-07-13T09:47:20;6.32;;;3.00;;
9860;SDS011;4969;52.304;4.968;2023-07-13T09:49:53;7.00;;;2.92;;
9860;SDS011;4969;52.304;4.968;2023-07-13T09:52:21;3.30;;;2.40;;
9860;SDS011;4969;52.304;4.968;2023-07-13T09:54:49;5.85;;;2.70;;
9860;SDS011;4969;52.304;4.968;2023-07-13T09:57:17;5.55;;;3.05;;
9860;SDS011;4969;52.304;4.968;2023-07-13T09:59:46;4.85;;;2.83;;
9860;SDS011;4969;52.304;4.968;2023-07-13T10:02:23;4.95;;;2.53;;
9860;SDS011;4969;52.304;4.968;2023-07-13T10:04:55;6.38;;;2.50;;
9860;SDS011;4969;52.304;4.968;2023-07-13T10:07:23;7.47;;;2.90;;
9860;SDS011;4969;52.304;4.968;2023-07-13T10:09:51;5.43;;;2.50;;
9860;SDS011;4969;52.304;4.968;2023-07-13T10:12:19;6.35;;;2.70;;
9860;SDS011;4969;52.304;4.968;2023-07-13T10:14:48;5.10;;;2.42;;
9860;SDS011;4969;52.304;4.968;2023-07-13T10:17:17;6.10;;;2.83;;
9860;SDS011;4969;52.304;4.968;2023-07-13T10:19:51;5.60;;;2.97;;
9860;SDS011;4969;52.304;4.968;2023-07-13T10:22:20;4.05;;;2.63;;
9860;SDS011;4969;52.304;4.968;2023-07-13T10:24:53;6.45;;;2.60;;
9860;SDS011;4969;52.304;4.968;2023-07-13T10:27:23;6.43;;;2.70;;
9860;SDS011;4969;52.304;4.968;2023-07-13T10:29:58;4.07;;;2.70;;
9860;SDS011;4969;52.304;4.968;2023-07-13T10:32:33;4.78;;;2.60;;
9860;SDS011;4969;52.304;4.968;2023-07-13T10:35:01;5.57;;;2.50;;
9860;SDS011;4969;52.304;4.968;2023-07-13T10:37:33;4.40;;;2.58;;
9860;SDS011;4969;52.304;4.968;2023-07-13T10:40:11;3.90;;;2.55;;
9860;SDS011;4969;52.304;4.968;2023-07-13T10:42:41;7.07;;;2.83;;
9860;SDS011;4969;52.304;4.968;2023-07-13T10:45:13;3.97;;;2.30;;
9860;SDS011;4969;52.304;4.968;2023-07-13T10:47:41;4.57;;;2.40;;
9860;SDS011;4969;52.304;4.968;2023-07-13T10:50:11;5.90;;;2.67;;
9860;SDS011;4969;52.304;4.968;2023-07-13T10:52:44;5.68;;;2.38;;
9860;SDS011;4969;52.304;4.968;2023-07-13T10:55:31;4.85;;;2.50;;
9860;SDS011;4969;52.304;4.968;2023-07-13T10:58:01;4.72;;;2.58;;
9860;SDS011;4969;52.304;4.968;2023-07-13T11:00:31;6.22;;;2.67;;
9860;SDS011;4969;52.304;4.968;2023-07-13T11:02:59;4.95;;;2.83;;
9860;SDS011;4969;52.304;4.968;2023-07-13T11:05:30;4.55;;;2.60;;
9860;SDS011;4969;52.304;4.968;2023-07-13T11:08:02;4.50;;;2.75;;
9860;SDS011;4969;52.304;4.968;2023-07-13T11:10:49;7.63;;;2.95;;
9860;SDS011;4969;52.304;4.968;2023-07-13T11:16:11;3.72;;;2.75;;
9860;SDS011;4969;52.304;4.968;2023-07-13T11:18:39;5.47;;;2.60;;
9860;SDS011;4969;52.304;4.968;2023-07-13T11:21:18;4.30;;;2.35;;
9860;SDS011;4969;52.304;4.968;2023-07-13T11:23:51;5.35;;;2.70;;
9860;SDS011;4969;52.304;4.968;2023-07-13T11:26:38;6.18;;;2.70;;
9860;SDS011;4969;52.304;4.968;2023-07-13T11:29:08;5.70;;;2.60;;
9860;SDS011;4969;52.304;4.968;2023-07-13T11:31:36;5.70;;;2.88;;
9860;SDS011;4969;52.304;4.968;2023-07-13T11:34:06;4.43;;;2.47;;
9860;SDS011;4969;52.304;4.968;2023-07-13T11:36:42;3.92;;;2.40;;
9860;SDS011;4969;52.304;4.968;2023-07-13T11:39:13;3.83;;;2.33;;
9860;SDS011;4969;52.304;4.968;2023-07-13T11:41:45;6.25;;;2.65;;
9860;SDS011;4969;52.304;4.968;2023-07-13T11:44:16;3.65;;;2.30;;
9860;SDS011;4969;52.304;4.968;2023-07-13T11:46:45;2.47;;;2.03;;
9860;SDS011;4969;52.304;4.968;2023-07-13T11:49:15;7.03;;;2.63;;
9860;SDS011;4969;52.304;4.968;2023-07-13T11:51:44;5.13;;;2.38;;
9860;SDS011;4969;52.304;4.968;2023-07-13T11:54:19;5.18;;;2.88;;
9860;SDS011;4969;52.304;4.968;2023-07-13T11:56:52;5.45;;;2.63;;
9860;SDS011;4969;52.304;4.968;2023-07-13T11:59:20;4.90;;;2.90;;
9860;SDS011;4969;52.304;4.968;2023-07-13T12:01:50;6.03;;;2.90;;
9860;SDS011;4969;52.304;4.968;2023-07-13T12:04:20;5.70;;;2.78;;
9860;SDS011;4969;52.304;4.968;2023-07-13T12:06:58;7.15;;;3.13;;
9860;SDS011;4969;52.304;4.968;2023-07-13T12:09:30;5.00;;;2.60;;
9860;SDS011;4969;52.304;4.968;2023-07-13T12:12:01;5.93;;;2.80;;
9860;SDS011;4969;52.304;4.968;2023-07-13T12:14:28;4.30;;;2.70;;
9860;SDS011;4969;52.304;4.968;2023-07-13T12:16:59;3.58;;;2.42;;
9860;SDS011;4969;52.304;4.968;2023-07-13T12:19:26;4.78;;;3.33;;
9860;SDS011;4969;52.304;4.968;2023-07-13T12:21:56;4.75;;;2.60;;
9860;SDS011;4969;52.304;4.968;2023-07-13T12:24:25;8.15;;;2.90;;
9860;SDS011;4969;52.304;4.968;2023-07-13T12:26:53;6.88;;;2.95;;
9860;SDS011;4969;52.304;4.968;2023-07-13T12:29:21;6.68;;;3.03;;
9860;SDS011;4969;52.304;4.968;2023-07-13T12:31:48;6.90;;;2.88;;
9860;SDS011;4969;52.304;4.968;2023-07-13T12:34:18;7.10;;;3.03;;
9860;SDS011;4969;52.304;4.968;2023-07-13T12:36:46;5.63;;;3.22;;
9860;SDS011;4969;52.304;4.968;2023-07-13T12:39:17;6.65;;;3.22;;
9860;SDS011;4969;52.304;4.968;2023-07-13T12:41:46;7.05;;;3.30;;
9860;SDS011;4969;52.304;4.968;2023-07-13T12:44:14;5.18;;;2.63;;
9860;SDS011;4969;52.304;4.968;2023-07-13T12:46:53;6.38;;;2.67;;
9860;SDS011;4969;52.304;4.968;2023-07-13T12:49:23;6.68;;;3.25;;
9860;SDS011;4969;52.304;4.968;2023-07-13T12:51:56;5.95;;;3.10;;
9860;SDS011;4969;52.304;4.968;2023-07-13T12:54:26;5.40;;;2.92;;
9860;SDS011;4969;52.304;4.968;2023-07-13T12:56:55;5.55;;;2.95;;
9860;SDS011;4969;52.304;4.968;2023-07-13T12:59:23;4.72;;;2.80;;
9860;SDS011;4969;52.304;4.968;2023-07-13T13:01:55;5.75;;;2.88;;
9860;SDS011;4969;52.304;4.968;2023-07-13T13:04:22;4.90;;;2.47;;
9860;SDS011;4969;52.304;4.968;2023-07-13T13:06:49;3.42;;;2.58;;
9860;SDS011;4969;52.304;4.968;2023-07-13T13:09:28;5.20;;;2.55;;
9860;SDS011;4969;52.304;4.968;2023-07-13T13:11:55;4.00;;;2.60;;
9860;SDS011;4969;52.304;4.968;2023-07-13T13:14:22;5.05;;;2.95;;
9860;SDS011;4969;52.304;4.968;2023-07-13T13:16:49;6.70;;;3.10;;
9860;SDS011;4969;52.304;4.968;2023-07-13T13:19:18;4.43;;;2.42;;
9860;SDS011;4969;52.304;4.968;2023-07-13T13:21:47;6.15;;;2.80;;
9860;SDS011;4969;52.304;4.968;2023-07-13T13:24:15;7.95;;;3.08;;
9860;SDS011;4969;52.304;4.968;2023-07-13T13:26:46;5.85;;;2.90;;
9860;SDS011;4969;52.304;4.968;2023-07-13T13:29:15;8.07;;;2.70;;
9860;SDS011;4969;52.304;4.968;2023-07-13T13:31:43;5.82;;;2.95;;
9860;SDS011;4969;52.304;4.968;2023-07-13T13:34:11;6.13;;;3.10;;
9860;SDS011;4969;52.304;4.968;2023-07-13T13:36:39;5.68;;;3.22;;
9860;SDS011;4969;52.304;4.968;2023-07-13T13:39:15;6.90;;;3.55;;
9860;SDS011;4969;52.304;4.968;2023-07-13T13:41:46;4.30;;;2.63;;
9860;SDS011;4969;52.304;4.968;2023-07-13T13:44:14;3.03;;;2.30;;
9860;SDS011;4969;52.304;4.968;2023-07-13T13:46:42;3.78;;;2.40;;
9860;SDS011;4969;52.304;4.968;2023-07-13T13:49:11;4.68;;;2.60;;
9860;SDS011;4969;52.304;4.968;2023-07-13T13:51:41;8.35;;;2.63;;
9860;SDS011;4969;52.304;4.968;2023-07-13T13:54:10;4.72;;;2.28;;
9860;SDS011;4969;52.304;4.968;2023-07-13T13:56:38;4.63;;;2.72;;
9860;SDS011;4969;52.304;4.968;2023-07-13T13:59:06;5.63;;;2.28;;
9860;SDS011;4969;52.304;4.968;2023-07-13T14:01:34;2.78;;;2.28;;
9860;SDS011;4969;52.304;4.968;2023-07-13T14:04:01;4.18;;;2.20;;
9860;SDS011;4969;52.304;4.968;2023-07-13T14:06:28;6.03;;;2.67;;
9860;SDS011;4969;52.304;4.968;2023-07-13T14:08:55;6.50;;;2.80;;
9860;SDS011;4969;52.304;4.968;2023-07-13T14:11:22;4.53;;;2.70;;
9860;SDS011;4969;52.304;4.968;2023-07-13T14:13:49;4.70;;;2.50;;
9860;SDS011;4969;52.304;4.968;2023-07-13T14:16:19;3.45;;;2.67;;
9860;SDS011;4969;52.304;4.968;2023-07-13T14:18:48;4.78;;;2.50;;
9860;SDS011;4969;52.304;4.968;2023-07-13T14:21:16;4.00;;;2.50;;
9860;SDS011;4969;52.304;4.968;2023-07-13T14:23:44;3.28;;;2.25;;
9860;SDS011;4969;52.304;4.968;2023-07-13T14:26:14;6.10;;;2.65;;
9860;SDS011;4969;52.304;4.968;2023-07-13T14:28:43;5.10;;;2.40;;
9860;SDS011;4969;52.304;4.968;2023-07-13T14:31:11;2.85;;;2.20;;
9860;SDS011;4969;52.304;4.968;2023-07-13T14:33:40;4.05;;;2.60;;
9860;SDS011;4969;52.304;4.968;2023-07-13T14:36:13;5.50;;;2.50;;
9860;SDS011;4969;52.304;4.968;2023-07-13T14:38:47;3.97;;;2.53;;
9860;SDS011;4969;52.304;4.968;2023-07-13T14:41:26;4.05;;;2.47;;
9860;SDS011;4969;52.304;4.968;2023-07-13T14:43:53;4.65;;;2.63;;
9860;SDS011;4969;52.304;4.968;2023-07-13T14:46:23;4.40;;;2.33;;
9860;SDS011;4969;52.304;4.968;2023-07-13T14:48:58;2.33;;;2.13;;
9860;SDS011;4969;52.304;4.968;2023-07-13T14:51:28;4.32;;;2.90;;
9860;SDS011;4969;52.304;4.968;2023-07-13T14:53:55;4.90;;;2.70;;
9860;SDS011;4969;52.304;4.968;2023-07-13T14:56:22;6.70;;;2.58;;
9860;SDS011;4969;52.304;4.968;2023-07-13T14:58:49;4.32;;;2.20;;
9860;SDS011;4969;52.304;4.968;2023-07-13T15:01:18;3.22;;;2.30;;
9860;SDS011;4969;52.304;4.968;2023-07-13T15:03:46;3.15;;;2.28;;
9860;SDS011;4969;52.304;4.968;2023-07-13T15:06:17;3.30;;;2.40;;
9860;SDS011;4969;52.304;4.968;2023-07-13T15:08:45;4.35;;;2.30;;
9860;SDS011;4969;52.304;4.968;2023-07-13T15:11:12;2.88;;;2.47;;
9860;SDS011;4969;52.304;4.968;2023-07-13T15:13:39;4.13;;;2.83;;
9860;SDS011;4969;52.304;4.968;2023-07-13T15:16:10;4.40;;;2.75;;
9860;SDS011;4969;52.304;4.968;2023-07-13T15:18:42;6.35;;;3.28;;
9860;SDS011;4969;52.304;4.968;2023-07-13T15:21:12;3.28;;;2.55;;
9860;SDS011;4969;52.304;4.968;2023-07-13T15:23:48;4.13;;;2.70;;
9860;SDS011;4969;52.304;4.968;2023-07-13T15:26:16;3.58;;;2.92;;
9860;SDS011;4969;52.304;4.968;2023-07-13T15:28:44;4.22;;;2.63;;
9860;SDS011;4969;52.304;4.968;2023-07-13T15:31:18;3.70;;;3.03;;
9860;SDS011;4969;52.304;4.968;2023-07-13T15:33:47;2.75;;;2.20;;